Fabre, Canada
Current Conditions -  °F | °C
As of 2:00 AM on Wednesday 22 Oct 2014 (Local Time) from CYXR Reporting Station
Clear Clear  
Wind Chill: 21°   Ceiling: Unl
Heat Index: 28°   Visibility: 9mi
Dew Point: 27°   Wind: 7mph
Humidity: 93%   Direction: 320°NW
Pressure: 30.35"   Gusts: NA
Location:  47.2°N, 79.37°W
Report Text: CYXR 220600Z AUTO 32006KT 9SM CLR M02/M03 A3035 RMK SLP292
Loading
Personal Weather Stations






























Interactive Weather Map
Tropical Storm Tracking
New forecast layout! Learn more

10-Day Weather Forecast

Advertisements
Track Severe Weather on mobile